sensor_id;sensor_type;location;lat;lon;timestamp;P1;durP1;ratioP1;P2;durP2;ratioP2
5630;SDS011;2837;50.990;7.124;2023-03-03T06:01:45;170.70;;;11.77;;
5630;SDS011;2837;50.990;7.124;2023-03-03T06:04:10;170.57;;;12.27;;
5630;SDS011;2837;50.990;7.124;2023-03-03T06:06:36;170.67;;;12.23;;
5630;SDS011;2837;50.990;7.124;2023-03-03T06:09:01;168.67;;;11.57;;
5630;SDS011;2837;50.990;7.124;2023-03-03T06:11:27;171.67;;;12.70;;
5630;SDS011;2837;50.990;7.124;2023-03-03T06:13:53;171.30;;;11.37;;
5630;SDS011;2837;50.990;7.124;2023-03-03T06:16:19;170.87;;;11.47;;
5630;SDS011;2837;50.990;7.124;2023-03-03T06:18:45;171.50;;;11.80;;
5630;SDS011;2837;50.990;7.124;2023-03-03T06:21:11;171.27;;;11.27;;
5630;SDS011;2837;50.990;7.124;2023-03-03T06:23:36;170.90;;;11.73;;
5630;SDS011;2837;50.990;7.124;2023-03-03T06:26:02;170.63;;;11.97;;
5630;SDS011;2837;50.990;7.124;2023-03-03T06:28:27;170.73;;;12.00;;
5630;SDS011;2837;50.990;7.124;2023-03-03T06:30:53;170.50;;;11.20;;
5630;SDS011;2837;50.990;7.124;2023-03-03T06:33:20;173.37;;;12.30;;
5630;SDS011;2837;50.990;7.124;2023-03-03T06:35:49;168.17;;;10.87;;
5630;SDS011;2837;50.990;7.124;2023-03-03T06:38:15;170.20;;;12.23;;
5630;SDS011;2837;50.990;7.124;2023-03-03T06:40:41;171.17;;;12.07;;
5630;SDS011;2837;50.990;7.124;2023-03-03T06:43:06;170.70;;;11.77;;
5630;SDS011;2837;50.990;7.124;2023-03-03T06:45:33;173.60;;;12.93;;
5630;SDS011;2837;50.990;7.124;2023-03-03T06:47:59;168.23;;;11.60;;
5630;SDS011;2837;50.990;7.124;2023-03-03T06:50:24;169.00;;;12.20;;
5630;SDS011;2837;50.990;7.124;2023-03-03T06:52:50;170.13;;;12.00;;
5630;SDS011;2837;50.990;7.124;2023-03-03T06:55:28;167.60;;;11.73;;
5630;SDS011;2837;50.990;7.124;2023-03-03T06:57:54;173.00;;;12.97;;
5630;SDS011;2837;50.990;7.124;2023-03-03T07:00:23;170.97;;;11.83;;
5630;SDS011;2837;50.990;7.124;2023-03-03T07:05:35;169.20;;;11.40;;
5630;SDS011;2837;50.990;7.124;2023-03-03T07:08:01;167.00;;;10.60;;
5630;SDS011;2837;50.990;7.124;2023-03-03T07:10:28;170.63;;;11.67;;
5630;SDS011;2837;50.990;7.124;2023-03-03T07:12:56;170.43;;;11.60;;
5630;SDS011;2837;50.990;7.124;2023-03-03T07:15:32;168.73;;;11.00;;
5630;SDS011;2837;50.990;7.124;2023-03-03T07:17:59;169.57;;;11.70;;
5630;SDS011;2837;50.990;7.124;2023-03-03T07:20:35;170.37;;;12.40;;
5630;SDS011;2837;50.990;7.124;2023-03-03T07:25:52;171.07;;;12.20;;
5630;SDS011;2837;50.990;7.124;2023-03-03T07:28:20;170.90;;;10.97;;
5630;SDS011;2837;50.990;7.124;2023-03-03T07:30:51;169.00;;;11.00;;
5630;SDS011;2837;50.990;7.124;2023-03-03T07:33:30;169.67;;;11.53;;
5630;SDS011;2837;50.990;7.124;2023-03-03T07:36:02;169.57;;;11.40;;
5630;SDS011;2837;50.990;7.124;2023-03-03T07:38:34;172.03;;;11.60;;
5630;SDS011;2837;50.990;7.124;2023-03-03T07:41:19;168.70;;;11.27;;
5630;SDS011;2837;50.990;7.124;2023-03-03T07:43:48;167.17;;;10.87;;
5630;SDS011;2837;50.990;7.124;2023-03-03T07:46:22;171.57;;;12.20;;
5630;SDS011;2837;50.990;7.124;2023-03-03T07:48:55;167.97;;;11.47;;
5630;SDS011;2837;50.990;7.124;2023-03-03T07:51:31;168.27;;;11.53;;
5630;SDS011;2837;50.990;7.124;2023-03-03T07:59:37;165.27;;;10.50;;
5630;SDS011;2837;50.990;7.124;2023-03-03T08:02:36;169.23;;;11.27;;
5630;SDS011;2837;50.990;7.124;2023-03-03T08:05:16;170.10;;;11.20;;
5630;SDS011;2837;50.990;7.124;2023-03-03T08:07:45;167.97;;;11.00;;
5630;SDS011;2837;50.990;7.124;2023-03-03T08:13:16;170.07;;;11.50;;
5630;SDS011;2837;50.990;7.124;2023-03-03T08:15:44;168.33;;;10.43;;
5630;SDS011;2837;50.990;7.124;2023-03-03T08:18:14;167.70;;;10.33;;
5630;SDS011;2837;50.990;7.124;2023-03-03T08:20:46;168.30;;;11.40;;
5630;SDS011;2837;50.990;7.124;2023-03-03T08:23:13;168.07;;;10.67;;
5630;SDS011;2837;50.990;7.124;2023-03-03T08:25:40;166.37;;;10.17;;
5630;SDS011;2837;50.990;7.124;2023-03-03T08:28:07;171.90;;;11.90;;
5630;SDS011;2837;50.990;7.124;2023-03-03T08:30:33;167.17;;;11.20;;
5630;SDS011;2837;50.990;7.124;2023-03-03T08:32:59;166.33;;;10.53;;
5630;SDS011;2837;50.990;7.124;2023-03-03T08:35:25;168.90;;;11.23;;
5630;SDS011;2837;50.990;7.124;2023-03-03T08:37:50;168.40;;;11.23;;
5630;SDS011;2837;50.990;7.124;2023-03-03T08:40:16;168.30;;;11.77;;
5630;SDS011;2837;50.990;7.124;2023-03-03T08:42:42;167.77;;;10.47;;
5630;SDS011;2837;50.990;7.124;2023-03-03T08:45:07;167.47;;;11.10;;
5630;SDS011;2837;50.990;7.124;2023-03-03T08:47:33;167.37;;;10.77;;
5630;SDS011;2837;50.990;7.124;2023-03-03T08:49:59;166.27;;;10.80;;
5630;SDS011;2837;50.990;7.124;2023-03-03T08:52:24;166.63;;;10.73;;
5630;SDS011;2837;50.990;7.124;2023-03-03T08:54:50;165.23;;;10.13;;
5630;SDS011;2837;50.990;7.124;2023-03-03T08:57:16;166.97;;;10.60;;
5630;SDS011;2837;50.990;7.124;2023-03-03T08:59:42;166.57;;;10.50;;
5630;SDS011;2837;50.990;7.124;2023-03-03T09:02:08;170.80;;;10.73;;
5630;SDS011;2837;50.990;7.124;2023-03-03T09:04:33;168.93;;;11.57;;
5630;SDS011;2837;50.990;7.124;2023-03-03T09:07:01;168.07;;;11.10;;
5630;SDS011;2837;50.990;7.124;2023-03-03T09:09:27;168.30;;;11.90;;
5630;SDS011;2837;50.990;7.124;2023-03-03T09:12:00;166.23;;;10.50;;
5630;SDS011;2837;50.990;7.124;2023-03-03T09:14:37;168.57;;;12.07;;
5630;SDS011;2837;50.990;7.124;2023-03-03T09:17:06;165.60;;;10.90;;
5630;SDS011;2837;50.990;7.124;2023-03-03T09:19:48;166.17;;;10.10;;
5630;SDS011;2837;50.990;7.124;2023-03-03T09:22:18;168.47;;;11.53;;
5630;SDS011;2837;50.990;7.124;2023-03-03T09:24:44;166.07;;;10.27;;
5630;SDS011;2837;50.990;7.124;2023-03-03T09:27:18;166.07;;;10.50;;
5630;SDS011;2837;50.990;7.124;2023-03-03T09:29:56;165.63;;;10.13;;
5630;SDS011;2837;50.990;7.124;2023-03-03T09:32:29;168.03;;;10.77;;
5630;SDS011;2837;50.990;7.124;2023-03-03T09:37:55;165.40;;;9.60;;
5630;SDS011;2837;50.990;7.124;2023-03-03T09:40:32;167.40;;;10.57;;
5630;SDS011;2837;50.990;7.124;2023-03-03T09:48:50;165.20;;;9.60;;
5630;SDS011;2837;50.990;7.124;2023-03-03T09:51:45;164.47;;;9.80;;
5630;SDS011;2837;50.990;7.124;2023-03-03T09:54:20;165.20;;;9.70;;
5630;SDS011;2837;50.990;7.124;2023-03-03T09:56:58;166.53;;;10.60;;
5630;SDS011;2837;50.990;7.124;2023-03-03T09:59:52;162.57;;;9.03;;
5630;SDS011;2837;50.990;7.124;2023-03-03T10:02:37;166.60;;;9.90;;
5630;SDS011;2837;50.990;7.124;2023-03-03T10:07:59;164.93;;;10.13;;
5630;SDS011;2837;50.990;7.124;2023-03-03T10:10:37;164.30;;;10.13;;
5630;SDS011;2837;50.990;7.124;2023-03-03T10:19:31;164.73;;;9.67;;
5630;SDS011;2837;50.990;7.124;2023-03-03T10:27:53;166.10;;;11.13;;
5630;SDS011;2837;50.990;7.124;2023-03-03T10:30:43;164.50;;;10.60;;
5630;SDS011;2837;50.990;7.124;2023-03-03T10:33:30;165.40;;;10.70;;
5630;SDS011;2837;50.990;7.124;2023-03-03T10:42:05;166.63;;;11.03;;
5630;SDS011;2837;50.990;7.124;2023-03-03T10:52:57;164.37;;;10.70;;
5630;SDS011;2837;50.990;7.124;2023-03-03T11:06:54;164.37;;;10.53;;
5630;SDS011;2837;50.990;7.124;2023-03-03T11:09:33;169.50;;;11.07;;
5630;SDS011;2837;50.990;7.124;2023-03-03T11:12:05;164.97;;;10.50;;
5630;SDS011;2837;50.990;7.124;2023-03-03T11:14:46;168.67;;;10.53;;
5630;SDS011;2837;50.990;7.124;2023-03-03T11:20:00;165.63;;;10.67;;
5630;SDS011;2837;50.990;7.124;2023-03-03T11:22:30;165.00;;;10.87;;
5630;SDS011;2837;50.990;7.124;2023-03-03T11:28:01;165.70;;;10.50;;
5630;SDS011;2837;50.990;7.124;2023-03-03T11:33:17;165.47;;;10.40;;
5630;SDS011;2837;50.990;7.124;2023-03-03T11:43:57;163.57;;;10.60;;
5630;SDS011;2837;50.990;7.124;2023-03-03T11:46:34;164.67;;;10.90;;
5630;SDS011;2837;50.990;7.124;2023-03-03T11:49:14;165.23;;;10.80;;
5630;SDS011;2837;50.990;7.124;2023-03-03T11:54:46;164.57;;;10.87;;
5630;SDS011;2837;50.990;7.124;2023-03-03T11:57:35;164.67;;;10.40;;
5630;SDS011;2837;50.990;7.124;2023-03-03T12:00:28;170.83;;;11.17;;
5630;SDS011;2837;50.990;7.124;2023-03-03T12:06:22;167.07;;;11.27;;
5630;SDS011;2837;50.990;7.124;2023-03-03T12:14:29;163.30;;;10.20;;
5630;SDS011;2837;50.990;7.124;2023-03-03T12:17:22;165.63;;;10.50;;
5630;SDS011;2837;50.990;7.124;2023-03-03T12:25:42;162.03;;;9.60;;
5630;SDS011;2837;50.990;7.124;2023-03-03T12:33:34;164.97;;;10.67;;
5630;SDS011;2837;50.990;7.124;2023-03-03T12:42:34;167.07;;;11.00;;
5630;SDS011;2837;50.990;7.124;2023-03-03T12:45:04;165.73;;;10.50;;
5630;SDS011;2837;50.990;7.124;2023-03-03T12:47:38;165.37;;;10.20;;
5630;SDS011;2837;50.990;7.124;2023-03-03T12:56:17;164.47;;;10.60;;
5630;SDS011;2837;50.990;7.124;2023-03-03T12:59:03;165.60;;;10.80;;
5630;SDS011;2837;50.990;7.124;2023-03-03T13:20:21;165.77;;;11.60;;
5630;SDS011;2837;50.990;7.124;2023-03-03T13:31:40;168.70;;;12.10;;
5630;SDS011;2837;50.990;7.124;2023-03-03T13:34:21;168.87;;;11.97;;
5630;SDS011;2837;50.990;7.124;2023-03-03T13:36:54;169.47;;;12.50;;
5630;SDS011;2837;50.990;7.124;2023-03-03T13:39:26;172.37;;;12.90;;
5630;SDS011;2837;50.990;7.124;2023-03-03T13:44:43;169.37;;;13.17;;
5630;SDS011;2837;50.990;7.124;2023-03-03T13:55:43;169.63;;;12.90;;
5630;SDS011;2837;50.990;7.124;2023-03-03T14:01:03;168.00;;;12.43;;
5630;SDS011;2837;50.990;7.124;2023-03-03T14:03:40;165.87;;;11.40;;
5630;SDS011;2837;50.990;7.124;2023-03-03T14:06:17;168.73;;;12.20;;
5630;SDS011;2837;50.990;7.124;2023-03-03T14:14:09;167.57;;;12.33;;
5630;SDS011;2837;50.990;7.124;2023-03-03T14:17:02;167.33;;;11.73;;
5630;SDS011;2837;50.990;7.124;2023-03-03T14:19:51;167.53;;;12.07;;
5630;SDS011;2837;50.990;7.124;2023-03-03T14:22:45;166.97;;;12.40;;
5630;SDS011;2837;50.990;7.124;2023-03-03T14:25:16;170.60;;;12.60;;
5630;SDS011;2837;50.990;7.124;2023-03-03T14:30:27;170.47;;;13.03;;
5630;SDS011;2837;50.990;7.124;2023-03-03T14:35:42;170.50;;;12.50;;
5630;SDS011;2837;50.990;7.124;2023-03-03T14:38:15;168.40;;;12.77;;
5630;SDS011;2837;50.990;7.124;2023-03-03T14:40:43;167.67;;;12.87;;
5630;SDS011;2837;50.990;7.124;2023-03-03T14:43:24;172.73;;;13.50;;
5630;SDS011;2837;50.990;7.124;2023-03-03T14:45:57;168.67;;;12.00;;
5630;SDS011;2837;50.990;7.124;2023-03-03T14:48:53;166.43;;;11.47;;
5630;SDS011;2837;50.990;7.124;2023-03-03T14:51:25;163.67;;;10.60;;
5630;SDS011;2837;50.990;7.124;2023-03-03T14:53:52;169.27;;;12.00;;
5630;SDS011;2837;50.990;7.124;2023-03-03T15:01:42;166.10;;;12.00;;
5630;SDS011;2837;50.990;7.124;2023-03-03T15:06:44;166.97;;;12.93;;
5630;SDS011;2837;50.990;7.124;2023-03-03T15:11:54;170.60;;;14.03;;
5630;SDS011;2837;50.990;7.124;2023-03-03T15:14:38;169.53;;;12.70;;
5630;SDS011;2837;50.990;7.124;2023-03-03T15:17:16;168.90;;;12.30;;
5630;SDS011;2837;50.990;7.124;2023-03-03T15:19:45;167.70;;;12.37;;
5630;SDS011;2837;50.990;7.124;2023-03-03T15:24:51;172.00;;;13.20;;
5630;SDS011;2837;50.990;7.124;2023-03-03T15:27:25;169.10;;;13.10;;
5630;SDS011;2837;50.990;7.124;2023-03-03T15:30:00;169.73;;;13.17;;
5630;SDS011;2837;50.990;7.124;2023-03-03T15:32:31;171.03;;;13.40;;
5630;SDS011;2837;50.990;7.124;2023-03-03T15:38:02;168.13;;;12.37;;
5630;SDS011;2837;50.990;7.124;2023-03-03T15:40:37;169.27;;;12.50;;
5630;SDS011;2837;50.990;7.124;2023-03-03T15:43:27;166.10;;;11.50;;
5630;SDS011;2837;50.990;7.124;2023-03-03T15:46:08;166.77;;;11.70;;
5630;SDS011;2837;50.990;7.124;2023-03-03T15:48:59;168.63;;;12.63;;
5630;SDS011;2837;50.990;7.124;2023-03-03T15:57:55;175.30;;;14.10;;
5630;SDS011;2837;50.990;7.124;2023-03-03T16:00:34;172.93;;;13.60;;
5630;SDS011;2837;50.990;7.124;2023-03-03T16:03:13;173.77;;;13.10;;
5630;SDS011;2837;50.990;7.124;2023-03-03T16:27:18;171.83;;;13.20;;
5630;SDS011;2837;50.990;7.124;2023-03-03T16:32:49;173.60;;;13.70;;
5630;SDS011;2837;50.990;7.124;2023-03-03T16:35:24;176.30;;;14.00;;
5630;SDS011;2837;50.990;7.124;2023-03-03T16:42:51;175.13;;;14.20;;
5630;SDS011;2837;50.990;7.124;2023-03-03T16:45:41;173.37;;;13.03;;
5630;SDS011;2837;50.990;7.124;2023-03-03T16:48:16;171.80;;;13.50;;
5630;SDS011;2837;50.990;7.124;2023-03-03T16:51:09;173.20;;;12.53;;
5630;SDS011;2837;50.990;7.124;2023-03-03T16:53:42;172.57;;;12.47;;
5630;SDS011;2837;50.990;7.124;2023-03-03T16:56:15;170.17;;;12.93;;
5630;SDS011;2837;50.990;7.124;2023-03-03T16:59:20;172.50;;;13.10;;
5630;SDS011;2837;50.990;7.124;2023-03-03T17:23:34;172.27;;;12.13;;
5630;SDS011;2837;50.990;7.124;2023-03-03T17:31:32;174.10;;;12.87;;
5630;SDS011;2837;50.990;7.124;2023-03-03T17:45:28;174.10;;;13.27;;
5630;SDS011;2837;50.990;7.124;2023-03-03T17:48:14;170.43;;;13.40;;
5630;SDS011;2837;50.990;7.124;2023-03-03T17:56:22;173.37;;;12.97;;
5630;SDS011;2837;50.990;7.124;2023-03-03T18:09:23;172.47;;;13.30;;
5630;SDS011;2837;50.990;7.124;2023-03-03T18:22:48;174.07;;;14.57;;
5630;SDS011;2837;50.990;7.124;2023-03-03T18:25:18;172.77;;;14.30;;
5630;SDS011;2837;50.990;7.124;2023-03-03T18:27:46;173.17;;;14.17;;
5630;SDS011;2837;50.990;7.124;2023-03-03T18:34:24;175.77;;;13.40;;
5630;SDS011;2837;50.990;7.124;2023-03-03T18:38:51;175.90;;;14.33;;
5630;SDS011;2837;50.990;7.124;2023-03-03T18:44:29;174.73;;;14.60;;
5630;SDS011;2837;50.990;7.124;2023-03-03T18:46:55;174.50;;;14.23;;
5630;SDS011;2837;50.990;7.124;2023-03-03T18:53:04;172.90;;;12.70;;
5630;SDS011;2837;50.990;7.124;2023-03-03T18:55:38;170.70;;;12.07;;
5630;SDS011;2837;50.990;7.124;2023-03-03T18:58:31;172.87;;;12.40;;
5630;SDS011;2837;50.990;7.124;2023-03-03T19:04:21;172.57;;;12.30;;
5630;SDS011;2837;50.990;7.124;2023-03-03T19:09:42;173.07;;;12.50;;
5630;SDS011;2837;50.990;7.124;2023-03-03T19:12:08;175.17;;;14.00;;
5630;SDS011;2837;50.990;7.124;2023-03-03T19:14:40;172.00;;;12.43;;
5630;SDS011;2837;50.990;7.124;2023-03-03T19:22:44;170.93;;;11.87;;
5630;SDS011;2837;50.990;7.124;2023-03-03T19:25:17;173.73;;;13.00;;
5630;SDS011;2837;50.990;7.124;2023-03-03T19:38:49;175.67;;;13.37;;
5630;SDS011;2837;50.990;7.124;2023-03-03T19:46:51;174.57;;;12.40;;
5630;SDS011;2837;50.990;7.124;2023-03-03T19:55:22;179.70;;;17.87;;
5630;SDS011;2837;50.990;7.124;2023-03-03T20:00:51;177.27;;;13.53;;
5630;SDS011;2837;50.990;7.124;2023-03-03T20:09:02;176.40;;;14.77;;
5630;SDS011;2837;50.990;7.124;2023-03-03T20:11:53;178.20;;;17.60;;
5630;SDS011;2837;50.990;7.124;2023-03-03T20:16:55;173.57;;;13.00;;
5630;SDS011;2837;50.990;7.124;2023-03-03T20:22:30;176.33;;;15.13;;
5630;SDS011;2837;50.990;7.124;2023-03-03T20:25:19;175.30;;;14.27;;
5630;SDS011;2837;50.990;7.124;2023-03-03T20:49:39;176.60;;;12.73;;
5630;SDS011;2837;50.990;7.124;2023-03-03T20:52:30;175.57;;;13.47;;
5630;SDS011;2837;50.990;7.124;2023-03-03T20:55:03;176.63;;;13.50;;
5630;SDS011;2837;50.990;7.124;2023-03-03T21:00:34;180.27;;;13.80;;
5630;SDS011;2837;50.990;7.124;2023-03-03T21:06:06;177.43;;;13.97;;
5630;SDS011;2837;50.990;7.124;2023-03-03T21:09:00;181.57;;;13.77;;
5630;SDS011;2837;50.990;7.124;2023-03-03T21:11:46;176.27;;;14.80;;
5630;SDS011;2837;50.990;7.124;2023-03-03T21:16:45;173.17;;;13.60;;
5630;SDS011;2837;50.990;7.124;2023-03-03T21:19:12;180.90;;;15.70;;
5630;SDS011;2837;50.990;7.124;2023-03-03T21:21:52;177.80;;;14.63;;
5630;SDS011;2837;50.990;7.124;2023-03-03T21:24:18;179.20;;;14.73;;
5630;SDS011;2837;50.990;7.124;2023-03-03T21:27:21;173.27;;;13.40;;
5630;SDS011;2837;50.990;7.124;2023-03-03T21:29:48;174.70;;;12.70;;
5630;SDS011;2837;50.990;7.124;2023-03-03T21:32:34;177.50;;;14.20;;
5630;SDS011;2837;50.990;7.124;2023-03-03T21:35:18;180.80;;;13.93;;
5630;SDS011;2837;50.990;7.124;2023-03-03T21:37:49;174.67;;;14.17;;
5630;SDS011;2837;50.990;7.124;2023-03-03T21:40:28;175.47;;;14.87;;
5630;SDS011;2837;50.990;7.124;2023-03-03T21:42:58;180.97;;;16.90;;
5630;SDS011;2837;50.990;7.124;2023-03-03T21:45:24;175.67;;;14.93;;
5630;SDS011;2837;50.990;7.124;2023-03-03T21:47:51;177.83;;;15.60;;
5630;SDS011;2837;50.990;7.124;2023-03-03T21:50:22;179.53;;;15.40;;
5630;SDS011;2837;50.990;7.124;2023-03-03T21:52:48;190.83;;;20.63;;
5630;SDS011;2837;50.990;7.124;2023-03-03T21:55:14;182.33;;;17.10;;
5630;SDS011;2837;50.990;7.124;2023-03-03T21:57:40;186.47;;;17.87;;
